Time;durP1;ratioP1;P1;durP2;ratioP2;P2;SDS_P1;SDS_P2;PMS_P1;PMS_P2;Temp;Humidity;BMP_temperature;BMP_pressure;BME280_temperature;BME280_humidity;BME280_pressure;Samples;Min_cycle;Max_cycle;Signal;HPM_P1;HPM_P2
2022/05/03 00:01:00;;;;;;;;;;;;;;;20.79;41.00;101150.94;5121070;27;2594;-62
2022/05/03 00:03:31;;;;;;;;;;;;;;;20.80;41.09;101140.16;5116579;27;2430;-61
2022/05/03 00:06:01;;;;;;;;;;;;;;;20.80;41.00;101157.44;5098537;27;2785;-61
2022/05/03 00:08:28;;;;;;;;;;;;;;;20.78;41.11;101155.22;5091998;27;2996;-61
2022/05/03 00:11:21;;;;;;;;;;;;;;;20.77;41.09;101153.72;5095994;27;2735;-62
2022/05/03 00:13:50;;;;;;;;;;;;;;;20.77;41.14;101147.97;5084834;27;2735;-62
2022/05/03 00:16:16;;;;;;;;;;;;;;;20.76;41.16;101137.84;5105074;27;2560;-62
2022/05/03 00:18:43;;;;;;;;;;;;;;;20.77;41.15;101147.97;5120641;27;2698;-62
2022/05/03 00:21:12;;;;;;;;;;;;;;;20.76;41.08;101149.34;5096352;27;2843;-62
2022/05/03 00:23:39;;;;;;;;;;;;;;;20.76;41.17;101140.72;5077030;27;2789;-61
2022/05/03 00:26:05;;;;;;;;;;;;;;;20.78;41.18;101137.22;5090612;27;2900;-61
2022/05/03 00:28:32;;;;;;;;;;;;;;;20.76;41.12;101126.34;5096461;27;2890;-62
2022/05/03 00:30:58;;;;;;;;;;;;;;;20.77;41.21;101124.94;5088332;27;2691;-61
2022/05/03 00:33:25;;;;;;;;;;;;;;;20.77;41.21;101130.69;5095882;27;2965;-62
2022/05/03 00:35:53;;;;;;;;;;;;;;;20.76;41.20;101123.47;5113957;27;2359;-62
2022/05/03 00:38:20;;;;;;;;;;;;;;;20.75;41.24;101127.72;5116991;27;2184;-62
2022/05/03 00:40:48;;;;;;;;;;;;;;;20.76;41.17;101123.47;5090339;27;2270;-62
2022/05/03 00:43:15;;;;;;;;;;;;;;;20.75;41.30;101127.72;5112038;27;2180;-62
2022/05/03 00:45:57;;;;;;;;;;;;;;;20.76;41.31;101122.72;5094228;27;2370;-62
2022/05/03 00:48:24;;;;;;;;;;;;;;;20.74;41.31;101117.59;5093270;27;2776;-62
2022/05/03 00:51:08;;;;;;;;;;;;;;;20.74;41.33;101108.97;5109380;27;2608;-62
2022/05/03 00:53:38;;;;;;;;;;;;;;;20.74;41.25;101108.97;5118308;27;2433;-62
2022/05/03 00:56:23;;;;;;;;;;;;;;;20.75;41.26;101103.94;5105674;27;2245;-62
2022/05/03 00:58:57;;;;;;;;;;;;;;;20.74;41.28;101108.97;5107872;27;2186;-61
2022/05/03 01:01:26;;;;;;;;;;;;;;;20.73;41.29;101113.25;5114484;27;1957;-62
2022/05/03 01:04:04;;;;;;;;;;;;;;;20.74;41.35;101123.34;5103698;27;2178;-62
2022/05/03 01:06:42;;;;;;;;;;;;;;;20.74;41.28;101120.47;5108888;27;2135;-62
2022/05/03 01:09:11;;;;;;;;;;;;;;;20.74;41.30;101120.47;5106542;27;2341;-62
2022/05/03 01:11:41;;;;;;;;;;;;;;;20.73;41.41;101121.09;5110793;27;2171;-62
2022/05/03 01:14:12;;;;;;;;;;;;;;;20.73;41.29;101130.50;5090862;27;2398;-62
2022/05/03 01:16:46;;;;;;;;;;;;;;;20.72;41.38;101117.50;5081823;27;2484;-62
2022/05/03 01:19:27;;;;;;;;;;;;;;;20.72;41.42;101129.00;5108450;27;2439;-62
2022/05/03 01:22:12;;;;;;;;;;;;;;;20.72;41.40;101129.00;5112963;27;2537;-61
2022/05/03 01:24:53;;;;;;;;;;;;;;;20.71;41.36;101121.78;5108714;27;2194;-62
2022/05/03 01:27:32;;;;;;;;;;;;;;;20.71;41.40;101122.50;5093253;27;2022;-62
2022/05/03 01:29:59;;;;;;;;;;;;;;;20.71;41.42;101113.13;5086265;27;2418;-62
2022/05/03 01:32:25;;;;;;;;;;;;;;;20.70;41.49;101120.28;5105294;27;2667;-61
2022/05/03 01:34:52;;;;;;;;;;;;;;;20.70;41.44;101126.03;5098300;27;2473;-62
2022/05/03 01:37:19;;;;;;;;;;;;;;;20.70;41.43;101114.50;5114187;27;2468;-62
2022/05/03 01:40:01;;;;;;;;;;;;;;;20.68;41.44;101120.16;5121936;27;2571;-61
2022/05/03 01:42:38;;;;;;;;;;;;;;;20.68;41.50;101125.94;5120169;27;2101;-61
2022/05/03 01:45:08;;;;;;;;;;;;;;;20.68;41.47;101123.03;5118683;27;2252;-62
2022/05/03 01:47:43;;;;;;;;;;;;;;;20.68;41.44;101117.28;5105112;27;2335;-62
2022/05/03 01:50:20;;;;;;;;;;;;;;;20.66;41.51;101114.31;5106482;27;2383;-62
2022/05/03 01:53:02;;;;;;;;;;;;;;;20.65;41.48;101110.69;5083992;27;2149;-61
2022/05/03 01:55:47;;;;;;;;;;;;;;;20.65;41.62;101107.09;5108119;27;2203;-62
2022/05/03 01:58:20;;;;;;;;;;;;;;;20.65;41.58;101104.94;5106344;27;2115;-61
2022/05/03 02:00:54;;;;;;;;;;;;;;;20.64;41.52;101109.22;5090441;27;2613;-61
2022/05/03 02:03:26;;;;;;;;;;;;;;;20.63;41.53;101110.59;5103873;27;2707;-61
2022/05/03 02:05:53;;;;;;;;;;;;;;;20.64;41.56;101099.84;5085716;27;3027;-62
2022/05/03 02:08:22;;;;;;;;;;;;;;;20.63;41.61;101104.09;5110722;27;2420;-61
2022/05/03 02:11:07;;;;;;;;;;;;;;;20.63;41.59;101104.09;5116013;27;2607;-62
2022/05/03 02:16:40;;;;;;;;;;;;;;;20.62;41.63;101102.63;5111978;28;2797;-62
2022/05/03 02:19:07;;;;;;;;;;;;;;;20.61;41.60;101106.88;5113413;28;2393;-62
2022/05/03 02:21:38;;;;;;;;;;;;;;;20.60;41.60;101106.13;5102624;28;2318;-61
2022/05/03 02:24:15;;;;;;;;;;;;;;;20.59;41.71;101107.53;5095480;28;2180;-62
2022/05/03 02:27:18;;;;;;;;;;;;;;;20.60;41.63;101111.16;5091174;28;2180;-62
2022/05/03 02:29:45;;;;;;;;;;;;;;;20.60;41.67;101108.28;5028754;28;2334;-62
2022/05/03 02:32:13;;;;;;;;;;;;;;;20.59;41.64;101116.16;5088232;28;2184;-61
2022/05/03 02:34:45;;;;;;;;;;;;;;;20.58;41.63;101105.28;5101644;28;2471;-62
2022/05/03 02:37:11;;;;;;;;;;;;;;;20.58;41.71;101113.94;5100918;28;2247;-61
2022/05/03 02:39:38;;;;;;;;;;;;;;;20.59;41.64;101109.66;5108116;28;2244;-61
2022/05/03 02:42:04;;;;;;;;;;;;;;;20.60;41.65;101111.88;5104039;28;2314;-62
2022/05/03 02:44:30;;;;;;;;;;;;;;;20.62;41.51;101108.38;5108569;28;2184;-62
2022/05/03 02:46:57;;;;;;;;;;;;;;;20.61;41.49;101106.88;5104830;28;2347;-61
2022/05/03 02:49:45;;;;;;;;;;;;;;;20.63;41.49;101109.84;5115001;28;2569;-62
2022/05/03 02:52:29;;;;;;;;;;;;;;;20.64;41.30;101108.47;5107181;27;2878;-62
2022/05/03 02:55:01;;;;;;;;;;;;;;;20.61;41.30;101107.63;5117812;28;2216;-61
2022/05/03 02:57:31;;;;;;;;;;;;;;;20.64;41.39;101111.34;5121378;27;2252;-61
2022/05/03 03:03:36;;;;;;;;;;;;;;;20.62;41.77;101114.88;5107162;27;2276;-62
2022/05/03 03:06:03;;;;;;;;;;;;;;;20.63;41.91;101115.59;5113339;27;2581;-62
2022/05/03 03:08:36;;;;;;;;;;;;;;;20.63;42.22;101121.38;5116128;27;2400;-61
2022/05/03 03:11:04;;;;;;;;;;;;;;;20.62;42.23;101117.00;5111984;27;2306;-62
2022/05/03 03:13:38;;;;;;;;;;;;;;;20.64;42.15;101120.00;5109000;27;2152;-62
2022/05/03 03:16:09;;;;;;;;;;;;;;;20.63;42.08;101122.09;5098030;27;2108;-62
2022/05/03 03:18:35;;;;;;;;;;;;;;;20.63;42.07;101121.38;5101536;27;2493;-62
2022/05/03 03:21:05;;;;;;;;;;;;;;;20.65;42.07;101118.59;5104956;27;2020;-62
2022/05/03 03:23:31;;;;;;;;;;;;;;;20.67;41.96;101125.19;5119501;27;2434;-62
2022/05/03 03:25:58;;;;;;;;;;;;;;;20.66;41.98;101122.94;5120438;27;2280;-62
2022/05/03 03:28:24;;;;;;;;;;;;;;;20.67;42.16;101127.31;5115271;27;2654;-62
2022/05/03 03:30:51;;;;;;;;;;;;;;;20.67;42.02;101128.06;5119253;27;2383;-63
2022/05/03 03:33:18;;;;;;;;;;;;;;;20.67;42.42;101122.31;5112806;27;2664;-61
2022/05/03 03:36:24;;;;;;;;;;;;;;;20.69;42.35;101124.56;5047673;28;2896;-61
2022/05/03 03:38:51;;;;;;;;;;;;;;;20.68;42.29;101126.69;5041578;28;2662;-61
2022/05/03 03:41:17;;;;;;;;;;;;;;;20.70;42.35;101126.03;5063834;28;2734;-61
2022/05/03 03:43:45;;;;;;;;;;;;;;;20.68;42.44;101128.81;5062650;28;2874;-61
2022/05/03 03:46:12;;;;;;;;;;;;;;;20.68;42.41;101128.81;5059655;28;2907;-61
2022/05/03 03:48:38;;;;;;;;;;;;;;;20.70;42.31;101132.53;5060185;28;2747;-61
2022/05/03 03:51:04;;;;;;;;;;;;;;;20.69;42.22;101124.56;5045555;28;2814;-62
2022/05/03 03:53:32;;;;;;;;;;;;;;;20.71;42.16;101130.41;5043496;28;2644;-61
2022/05/03 03:55:58;;;;;;;;;;;;;;;20.72;42.25;101143.41;5061785;28;2701;-61
2022/05/03 03:58:24;;;;;;;;;;;;;;;20.73;42.25;101129.75;5059387;28;2721;-61
2022/05/03 04:00:51;;;;;;;;;;;;;;;20.75;42.25;101129.84;5039273;28;2779;-61
2022/05/03 04:03:18;;;;;;;;;;;;;;;20.75;42.28;101132.72;5063963;28;2410;-61
2022/05/03 04:05:44;;;;;;;;;;;;;;;20.74;42.43;101128.38;5061891;28;2913;-61
2022/05/03 04:08:15;;;;;;;;;;;;;;;20.74;42.46;101129.09;5115959;27;2691;-61
2022/05/03 04:10:43;;;;;;;;;;;;;;;20.72;42.65;101131.88;5117744;27;2642;-62
2022/05/03 04:13:12;;;;;;;;;;;;;;;20.71;42.64;101125.38;5116768;27;2758;-61
2022/05/03 04:15:38;;;;;;;;;;;;;;;20.73;42.81;101130.50;5122927;27;2495;-61
2022/05/03 04:18:08;;;;;;;;;;;;;;;20.72;42.80;101134.75;5120106;27;3000;-61
2022/05/03 04:20:35;;;;;;;;;;;;;;;20.73;42.71;101130.50;5118287;27;2720;-61
2022/05/03 04:23:01;;;;;;;;;;;;;;;20.73;42.63;101144.91;5109585;27;2927;-61
2022/05/03 04:25:28;;;;;;;;;;;;;;;20.75;42.63;101135.59;5120066;27;2744;-61
2022/05/03 04:27:54;;;;;;;;;;;;;;;20.75;42.51;101147.84;5120314;27;2604;-61
2022/05/03 04:30:20;;;;;;;;;;;;;;;20.74;42.43;101132.00;5123454;27;2692;-61
2022/05/03 04:32:47;;;;;;;;;;;;;;;20.77;42.44;101147.97;5120936;27;3017;-61
2022/05/03 04:35:13;;;;;;;;;;;;;;;20.77;42.58;101144.34;5113403;27;2789;-61
2022/05/03 04:37:39;;;;;;;;;;;;;;;20.77;42.61;101139.31;5114871;27;2737;-61
2022/05/03 04:40:06;;;;;;;;;;;;;;;20.76;42.86;101146.47;5108588;27;2754;-61
2022/05/03 04:42:32;;;;;;;;;;;;;;;20.75;43.11;101150.72;5122331;27;2999;-61
2022/05/03 04:44:59;;;;;;;;;;;;;;;20.77;43.03;101155.84;5108597;27;2737;-61
2022/05/03 04:47:25;;;;;;;;;;;;;;;20.77;42.97;101156.59;5119523;27;2714;-61
2022/05/03 04:49:51;;;;;;;;;;;;;;;20.76;43.03;101158.00;5117485;27;2988;-61
2022/05/03 04:52:19;;;;;;;;;;;;;;;20.74;43.03;101160.75;5117965;27;2794;-61
2022/05/03 04:54:45;;;;;;;;;;;;;;;20.75;43.06;101161.50;5103908;27;2871;-61
2022/05/03 04:57:11;;;;;;;;;;;;;;;20.75;43.00;101162.25;5117904;27;2618;-61
2022/05/03 04:59:38;;;;;;;;;;;;;;;20.76;42.94;101169.50;5122656;27;2659;-61
2022/05/03 05:02:04;;;;;;;;;;;;;;;20.77;42.99;101170.97;5123274;27;2273;-62
2022/05/03 05:04:31;;;;;;;;;;;;;;;20.78;42.83;101172.47;5120924;27;2926;-61
2022/05/03 05:06:57;;;;;;;;;;;;;;;20.76;43.01;101181.00;5109298;27;2687;-61
2022/05/03 05:09:23;;;;;;;;;;;;;;;20.76;43.03;101175.25;5128432;27;2297;-61
2022/05/03 05:11:50;;;;;;;;;;;;;;;20.75;43.26;101179.50;5122612;27;2584;-61
2022/05/03 05:14:19;;;;;;;;;;;;;;;20.76;43.08;101192.53;5118875;27;2654;-61
2022/05/03 05:16:46;;;;;;;;;;;;;;;20.78;43.09;101183.25;5111104;27;2750;-62
2022/05/03 05:19:13;;;;;;;;;;;;;;;20.78;43.26;101184.00;5116996;27;2721;-62
2022/05/03 05:21:39;;;;;;;;;;;;;;;20.79;43.09;101184.72;5119465;27;2752;-61
2022/05/03 05:24:10;;;;;;;;;;;;;;;20.77;43.34;101181.75;5118755;27;2634;-61
2022/05/03 05:26:36;;;;;;;;;;;;;;;20.78;44.09;101183.25;5122632;27;2660;-61
2022/05/03 05:29:02;;;;;;;;;;;;;;;20.78;44.01;101189.75;5113703;27;2790;-59
2022/05/03 05:31:29;;;;;;;;;;;;;;;20.81;44.09;101190.59;5101135;27;2711;-63
2022/05/03 05:33:55;;;;;;;;;;;;;;;20.82;44.16;101181.31;5111385;27;2665;-57
2022/05/03 05:36:22;;;;;;;;;;;;;;;20.82;43.98;101178.44;5115750;27;2744;-57
2022/05/03 05:38:48;;;;;;;;;;;;;;;20.81;43.92;101182.69;5116609;27;2675;-57
2022/05/03 05:41:14;;;;;;;;;;;;;;;20.83;43.98;101184.94;5105450;27;2545;-60
2022/05/03 05:43:42;;;;;;;;;;;;;;;20.76;43.02;101175.25;5116411;27;2585;-58
2022/05/03 05:46:09;;;;;;;;;;;;;;;20.76;43.08;101178.13;5124331;27;2516;-57
2022/05/03 05:48:37;;;;;;;;;;;;;;;20.75;43.64;101176.63;5114874;27;2695;-57
2022/05/03 05:51:03;;;;;;;;;;;;;;;20.76;43.83;101175.25;5112452;27;2621;-55
2022/05/03 05:53:32;;;;;;;;;;;;;;;20.81;43.81;101188.47;5118087;27;2454;-58
2022/05/03 05:56:02;;;;;;;;;;;;;;;20.81;43.82;101191.34;5121335;27;2873;-56
2022/05/03 06:02:04;;;;;;;;;;;;;;;20.82;43.69;101192.84;5111843;27;2631;-57
2022/05/03 06:04:33;;;;;;;;;;;;;;;20.83;43.73;101199.34;5117915;27;2569;-57
2022/05/03 06:06:59;;;;;;;;;;;;;;;20.81;43.58;101199.97;5118675;27;2712;-57
2022/05/03 06:09:26;;;;;;;;;;;;;;;20.83;43.61;101202.94;5118339;27;2623;-56
2022/05/03 06:11:52;;;;;;;;;;;;;;;20.84;43.55;101209.44;5119819;28;2691;-57
2022/05/03 06:14:18;;;;;;;;;;;;;;;20.84;43.55;101204.44;5124356;28;1922;-57
2022/05/03 06:16:48;;;;;;;;;;;;;;;20.87;43.39;101202.41;5116568;28;2577;-56
2022/05/03 06:19:14;;;;;;;;;;;;;;;20.87;43.32;101208.19;5123168;28;2329;-57
2022/05/03 06:21:41;;;;;;;;;;;;;;;20.89;43.24;101203.25;5122289;28;1641;-57
2022/05/03 06:24:07;;;;;;;;;;;;;;;20.89;43.30;101211.91;5121609;28;2462;-57
2022/05/03 06:26:34;;;;;;;;;;;;;;;20.91;43.15;101205.47;5123781;28;2537;-57
2022/05/03 06:29:01;;;;;;;;;;;;;;;20.95;43.24;101204.94;5119955;28;2493;-58
2022/05/03 06:31:28;;;;;;;;;;;;;;;21.00;43.19;101203.75;5117307;27;2585;-58
2022/05/03 06:33:55;;;;;;;;;;;;;;;21.00;43.14;101210.25;5127584;27;2625;-56
2022/05/03 06:36:21;;;;;;;;;;;;;;;21.04;43.09;101206.84;5126331;27;2526;-51
2022/05/03 06:38:48;;;;;;;;;;;;;;;21.06;43.07;101213.44;5119455;27;3366;-58
2022/05/03 06:41:16;;;;;;;;;;;;;;;21.09;42.75;101211.41;5122984;27;2510;-55
2022/05/03 06:43:42;;;;;;;;;;;;;;;21.10;42.89;101219.41;5120566;27;3059;-57
2022/05/03 06:46:09;;;;;;;;;;;;;;;21.09;42.90;101215.00;5129186;27;2315;-56
2022/05/03 06:48:35;;;;;;;;;;;;;;;21.11;42.77;101223.00;5129431;27;2703;-53
2022/05/03 06:51:02;;;;;;;;;;;;;;;21.12;42.89;101218.75;5121030;27;2320;-53
2022/05/03 06:53:28;;;;;;;;;;;;;;;21.12;42.75;101227.41;5124986;27;2653;-54
2022/05/03 06:55:54;;;;;;;;;;;;;;;21.14;42.50;101218.84;5119792;27;2734;-54
2022/05/03 06:58:21;;;;;;;;;;;;;;;21.17;42.54;101214.69;5124330;27;2568;-55
2022/05/03 07:00:47;;;;;;;;;;;;;;;21.16;42.57;101218.94;5107739;27;2921;-55
2022/05/03 07:03:14;;;;;;;;;;;;;;;21.15;42.59;101226.09;5103386;27;2687;-61
2022/05/03 07:05:40;;;;;;;;;;;;;;;21.15;42.23;101226.09;5127578;27;2928;-61
2022/05/03 07:08:10;;;;;;;;;;;;;;;21.10;41.56;101235.94;5126745;27;2652;-63
2022/05/03 07:10:37;;;;;;;;;;;;;;;21.04;40.51;101235.63;5112868;27;3462;-63
2022/05/03 07:13:03;;;;;;;;;;;;;;;21.00;39.91;101235.41;5118734;27;2701;-65
2022/05/03 07:15:30;;;;;;;;;;;;;;;20.97;39.22;101239.59;5130330;27;2592;-63
2022/05/03 07:23:26;;;;;;;;;;;;;;;20.90;38.15;101232.78;5124142;27;2632;-62
2022/05/03 07:25:53;;;;;;;;;;;;;;;20.89;38.13;101240.69;5126167;27;2791;-62
2022/05/03 07:28:20;;;;;;;;;;;;;;;20.91;38.11;101237.16;5111466;27;3835;-61
2022/05/03 07:30:46;;;;;;;;;;;;;;;20.90;37.83;101236.41;5116019;27;2755;-62
2022/05/03 07:33:12;;;;;;;;;;;;;;;20.89;37.75;101240.69;5121912;27;2701;-62
2022/05/03 07:35:39;;;;;;;;;;;;;;;20.88;37.57;101244.19;5123381;27;2794;-60
2022/05/03 07:38:05;;;;;;;;;;;;;;;20.87;37.32;101234.81;5118656;27;2998;-59
2022/05/03 07:40:32;;;;;;;;;;;;;;;20.84;37.36;101244.72;5114545;27;3364;-61
2022/05/03 07:42:58;;;;;;;;;;;;;;;20.80;37.29;101247.41;5121668;27;2490;-61
2022/05/03 07:45:24;;;;;;;;;;;;;;;20.78;37.08;101253.06;5110394;27;2878;-61
2022/05/03 07:47:51;;;;;;;;;;;;;;;20.78;36.66;101258.81;5122461;27;2600;-61
2022/05/03 07:50:17;;;;;;;;;;;;;;;20.79;37.12;101263.19;5115320;27;3495;-61
2022/05/03 07:52:43;;;;;;;;;;;;;;;20.87;37.73;101272.25;5124336;27;2952;-61
2022/05/03 07:55:10;;;;;;;;;;;;;;;20.88;38.26;101270.84;5121731;27;2713;-63
2022/05/03 07:57:36;;;;;;;;;;;;;;;20.89;37.99;101260.06;5122731;27;3100;-65
2022/05/03 08:00:04;;;;;;;;;;;;;;;20.91;38.25;101260.19;5123017;27;2718;-61
2022/05/03 08:02:30;;;;;;;;;;;;;;;20.93;38.54;101254.53;5114995;27;3479;-61
2022/05/03 08:04:57;;;;;;;;;;;;;;;20.91;38.26;101260.19;5129385;27;2679;-62
2022/05/03 08:07:23;;;;;;;;;;;;;;;20.93;38.18;101260.28;5118934;27;3129;-63
2022/05/03 08:09:50;;;;;;;;;;;;;;;20.93;38.55;101258.13;5117611;27;3424;-61
2022/05/03 08:12:17;;;;;;;;;;;;;;;20.96;38.77;101264.00;5118283;27;2717;-62
2022/05/03 08:14:44;;;;;;;;;;;;;;;20.99;38.67;101259.84;5125331;27;2890;-63
2022/05/03 08:17:10;;;;;;;;;;;;;;;20.99;38.89;101262.72;5128092;27;2409;-63
2022/05/03 08:19:37;;;;;;;;;;;;;;;21.00;39.21;101267.09;5118126;27;2908;-60
2022/05/03 08:22:03;;;;;;;;;;;;;;;20.95;38.04;101265.41;5110368;27;3498;-62
2022/05/03 08:24:29;;;;;;;;;;;;;;;20.82;36.53;101266.91;5114915;27;3275;-61
2022/05/03 08:26:56;;;;;;;;;;;;;;;20.79;36.44;101273.97;5120566;27;2720;-61
2022/05/03 08:29:23;;;;;;;;;;;;;;;20.85;36.52;101275.03;5119837;27;2874;-58
2022/05/03 08:31:49;;;;;;;;;;;;;;;20.88;37.21;101278.75;5106391;27;3374;-60
2022/05/03 08:34:16;;;;;;;;;;;;;;;20.94;37.74;101276.19;5118589;27;3363;-59
2022/05/03 08:42:01;;;;;;;;;;;;;;;20.97;38.11;101279.91;5123896;27;2604;-59
2022/05/03 08:42:15;;;;;;;;;;;;;;;20.99;38.53;101277.88;5116234;27;2961;-62
2022/05/03 08:44:41;;;;;;;;;;;;;;;21.00;38.43;101278.59;5116617;27;3397;-61
2022/05/03 08:47:08;;;;;;;;;;;;;;;21.04;38.44;101281.69;5124356;27;2486;-61
2022/05/03 08:49:52;;;;;;;;;;;;;;;21.07;38.57;101280.41;5114996;27;3808;-65
2022/05/03 08:52:19;;;;;;;;;;;;;;;21.05;38.28;101274.53;5113571;27;2615;-66
2022/05/03 08:54:45;;;;;;;;;;;;;;;21.06;38.21;101276.03;5104340;28;2878;-61
2022/05/03 08:57:12;;;;;;;;;;;;;;;21.09;38.34;101274.75;5104139;27;2728;-68
2022/05/03 08:59:38;;;;;;;;;;;;;;;21.10;38.29;101276.25;5107593;27;1644;-64
2022/05/03 09:02:04;;;;;;;;;;;;;;;21.10;38.79;101276.25;5121932;27;2490;-64
2022/05/03 09:04:31;;;;;;;;;;;;;;;21.09;38.70;101263.22;5123306;27;3017;-63
2022/05/03 09:06:58;;;;;;;;;;;;;;;21.07;39.13;101263.88;5120479;27;2683;-63
2022/05/03 09:09:24;;;;;;;;;;;;;;;21.09;39.00;101272.59;5103645;27;2519;-63
2022/05/03 09:11:51;;;;;;;;;;;;;;;21.12;39.02;101271.34;5121825;27;1941;-63
2022/05/03 09:14:36;;;;;;;;;;;;;;;21.12;39.06;101261.97;5122610;27;2584;-63
2022/05/03 09:17:03;;;;;;;;;;;;;;;21.16;39.04;101255.63;5116834;27;2711;-63
2022/05/03 09:19:29;;;;;;;;;;;;;;;21.16;39.05;101247.00;5124541;27;2444;-63
2022/05/03 09:24:53;;;;;;;;;;;;;;;21.20;39.07;101244.31;5124702;27;1749;-64
2022/05/03 09:27:20;;;;;;;;;;;;;;;21.23;38.96;101243.75;5124985;27;2644;-65
2022/05/03 09:30:02;;;;;;;;;;;;;;;21.23;39.12;101248.78;5123305;27;2632;-64
2022/05/03 09:32:44;;;;;;;;;;;;;;;21.22;39.11;101242.28;5120930;27;2077;-64
2022/05/03 09:35:31;;;;;;;;;;;;;;;21.27;39.09;101243.97;5123892;27;1720;-64
2022/05/03 09:37:58;;;;;;;;;;;;;;;21.25;39.10;101237.38;5116099;27;2857;-64
2022/05/03 09:40:25;;;;;;;;;;;;;;;21.28;39.18;101248.34;5120387;27;1628;-64
2022/05/03 09:42:53;;;;;;;;;;;;;;;21.30;39.17;101247.69;5119001;27;2605;-58
2022/05/03 09:45:25;;;;;;;;;;;;;;;21.24;39.17;101251.03;5116819;27;3380;-65
2022/05/03 09:47:56;;;;;;;;;;;;;;;21.23;37.08;101255.28;5116186;27;3397;-64
2022/05/03 09:50:27;;;;;;;;;;;;;;;21.26;37.29;101248.25;5127252;27;1977;-63
2022/05/03 09:52:53;;;;;;;;;;;;;;;21.27;37.35;101258.38;5120090;27;2571;-64
2022/05/03 09:55:32;;;;;;;;;;;;;;;21.29;37.51;101251.97;5109068;27;1809;-63
2022/05/03 09:58:02;;;;;;;;;;;;;;;21.29;37.68;101251.97;5123146;27;2772;-68
2022/05/03 10:00:30;;;;;;;;;;;;;;;21.30;37.95;101251.34;5120412;27;2772;-67
2022/05/03 10:03:00;;;;;;;;;;;;;;;21.30;38.03;101248.44;5125645;27;2549;-65
2022/05/03 10:05:27;;;;;;;;;;;;;;;21.30;38.33;101254.22;5099784;27;2692;-65
2022/05/03 10:07:53;;;;;;;;;;;;;;;21.32;38.40;101242.75;5094345;28;2440;-65
2022/05/03 10:10:20;;;;;;;;;;;;;;;21.34;38.50;101250.78;5115662;27;2194;-65
2022/05/03 10:12:47;;;;;;;;;;;;;;;21.34;38.56;101237.09;5121400;28;2476;-67
2022/05/03 10:20:35;;;;;;;;;;;;;;;21.34;38.70;101245.00;5103662;28;1797;-64
2022/05/03 10:20:46;;;;;;;;;;;;;;;21.39;38.94;101243.81;5096862;28;3477;-60
2022/05/03 10:23:20;;;;;;;;;;;;;;;21.39;39.11;101248.81;5115674;27;2572;-66
2022/05/03 10:25:47;;;;;;;;;;;;;;;21.40;39.21;101244.56;5117016;28;2698;-63
2022/05/03 10:28:13;;;;;;;;;;;;;;;21.38;39.46;101235.84;5124096;28;1803;-62
2022/05/03 10:30:59;;;;;;;;;;;;;;;21.39;39.45;101243.06;5101834;28;3295;-65
2022/05/03 10:33:28;;;;;;;;;;;;;;;21.41;39.43;101228.78;5112504;28;2669;-61
2022/05/03 10:35:54;;;;;;;;;;;;;;;21.40;39.72;101215.75;5120917;28;2894;-67
2022/05/03 10:38:39;;;;;;;;;;;;;;;21.40;39.54;101230.94;5123586;28;2664;-67
2022/05/03 10:41:05;;;;;;;;;;;;;;;21.43;39.15;101231.78;5111912;28;3508;-64
2022/05/03 10:43:35;;;;;;;;;;;;;;;21.44;39.67;101227.50;5122916;28;2406;-64
2022/05/03 10:46:11;;;;;;;;;;;;;;;21.41;39.96;101226.66;5120644;28;2751;-65
2022/05/03 10:48:41;;;;;;;;;;;;;;;21.45;40.45;101223.22;5123727;28;3487;-66
2022/05/03 10:51:07;;;;;;;;;;;;;;;21.47;40.66;101220.44;5118033;27;2012;-64
2022/05/03 10:53:34;;;;;;;;;;;;;;;21.48;40.20;101221.94;5118764;28;1607;-65
2022/05/03 10:56:16;;;;;;;;;;;;;;;21.47;40.47;101217.56;5125833;28;1510;-64
2022/05/03 10:58:43;;;;;;;;;;;;;;;21.48;40.08;101210.41;5126457;28;1668;-67
2022/05/03 11:01:20;;;;;;;;;;;;;;;21.51;40.08;101217.78;5115750;28;1632;-64
2022/05/03 11:03:47;;;;;;;;;;;;;;;21.53;39.99;101207.06;5125011;28;1807;-62
2022/05/03 11:06:20;;;;;;;;;;;;;;;21.54;39.79;101207.81;5124218;28;2410;-63
2022/05/03 11:09:05;;;;;;;;;;;;;;;21.54;40.09;101208.56;5125683;28;1792;-63
2022/05/03 11:11:43;;;;;;;;;;;;;;;21.55;40.07;101209.28;5114746;28;1984;-66
2022/05/03 11:14:17;;;;;;;;;;;;;;;21.56;40.43;101213.69;5126670;28;1800;-63
2022/05/03 11:16:44;;;;;;;;;;;;;;;21.56;40.50;101210.78;5125092;28;1604;-64
2022/05/03 11:19:19;;;;;;;;;;;;;;;21.56;40.32;101205.03;5127546;27;1869;-67
2022/05/03 11:21:46;;;;;;;;;;;;;;;21.58;40.24;101208.00;5113968;27;1638;-68
2022/05/03 11:24:39;;;;;;;;;;;;;;;21.61;40.79;101200.94;5128272;27;2488;-67
2022/05/03 11:27:05;;;;;;;;;;;;;;;21.62;40.60;101202.41;5094216;27;1832;-67
2022/05/03 11:29:32;;;;;;;;;;;;;;;21.60;40.47;101205.22;5119324;27;2746;-74
2022/05/03 11:31:59;;;;;;;;;;;;;;;21.57;38.91;101203.63;5092771;27;2787;-72
2022/05/03 11:34:26;;;;;;;;;;;;;;;21.48;36.91;101201.75;5106077;27;3024;-71
2022/05/03 11:36:52;;;;;;;;;;;;;;;21.42;35.21;101192.84;5127262;27;2586;-71
2022/05/03 11:39:21;;;;;;;;;;;;;;;21.38;35.05;101190.47;5123798;27;2525;-70
2022/05/03 11:41:47;;;;;;;;;;;;;;;21.34;34.11;101185.25;5115317;27;2543;-71
2022/05/03 11:44:14;;;;;;;;;;;;;;;21.32;33.61;101188.03;5125900;27;2580;-71
2022/05/03 11:46:41;;;;;;;;;;;;;;;21.31;34.08;101186.56;5123010;27;2485;-71
2022/05/03 11:49:08;;;;;;;;;;;;;;;21.31;34.16;101186.56;5125628;27;2692;-73
2022/05/03 11:57:19;;;;;;;;;;;;;;;21.42;35.01;101184.19;5126678;27;1845;-68
2022/05/03 11:59:45;;;;;;;;;;;;;;;21.43;35.61;101177.78;5125201;27;2246;-66
2022/05/03 12:02:17;;;;;;;;;;;;;;;21.45;36.44;101169.22;5113318;27;2669;-67
2022/05/03 12:05:02;;;;;;;;;;;;;;;21.49;37.03;101171.56;5127173;27;2671;-69
2022/05/03 12:07:29;;;;;;;;;;;;;;;21.49;37.72;101168.69;5123790;27;2485;-68
2022/05/03 12:09:56;;;;;;;;;;;;;;;21.48;38.39;101172.94;5117317;27;2730;-67
2022/05/03 12:12:43;;;;;;;;;;;;;;;21.49;38.66;101175.19;5117145;27;2009;-67
2022/05/03 12:15:19;;;;;;;;;;;;;;;21.50;38.81;101173.03;5129420;27;1803;-68
2022/05/03 12:17:54;;;;;;;;;;;;;;;21.52;38.96;101168.13;5125610;27;2271;-68
2022/05/03 12:20:21;;;;;;;;;;;;;;;21.53;38.94;101163.84;5116650;27;2623;-67
2022/05/03 12:23:06;;;;;;;;;;;;;;;21.54;39.14;101162.44;5123728;27;1563;-66
2022/05/03 12:25:33;;;;;;;;;;;;;;;21.57;39.32;101171.94;5127949;27;1593;-68
2022/05/03 12:28:03;;;;;;;;;;;;;;;21.58;39.62;101159.03;5129012;27;1876;-68
2022/05/03 12:30:29;;;;;;;;;;;;;;;21.59;39.59;101160.50;5116283;27;2580;-72
2022/05/03 12:32:59;;;;;;;;;;;;;;;21.62;39.59;101156.31;5113750;27;2703;-71
2022/05/03 12:35:29;;;;;;;;;;;;;;;21.62;39.59;101162.06;5123146;27;2408;-69
2022/05/03 12:37:56;;;;;;;;;;;;;;;21.64;39.64;101167.94;5108478;27;1774;-74
2022/05/03 12:40:23;;;;;;;;;;;;;;;21.65;39.66;101166.56;5114576;27;2681;-67
2022/05/03 12:42:50;;;;;;;;;;;;;;;21.70;39.74;101162.44;5115156;27;2737;-69
2022/05/03 12:45:19;;;;;;;;;;;;;;;21.69;39.79;101157.34;5103548;27;3412;-66
2022/05/03 12:47:48;;;;;;;;;;;;;;;21.67;39.96;101158.00;5112576;27;2787;-72
2022/05/03 12:50:15;;;;;;;;;;;;;;;21.67;40.36;101157.22;5106628;27;2981;-72
2022/05/03 12:52:41;;;;;;;;;;;;;;;21.68;39.82;101162.34;5110550;27;2742;-74
2022/05/03 12:55:08;;;;;;;;;;;;;;;21.70;39.73;101153.81;5107817;27;3327;-66
2022/05/03 13:00:19;;;;;;;;;;;;;;;21.72;40.04;101148.13;5104780;27;2802;-65
2022/05/03 13:02:46;;;;;;;;;;;;;;;21.70;40.05;101148.03;5114064;27;2826;-65
2022/05/03 13:05:12;;;;;;;;;;;;;;;21.65;40.31;101146.38;5115512;27;2847;-65
2022/05/03 13:07:38;;;;;;;;;;;;;;;21.66;40.41;101150.72;5116568;27;2810;-65
2022/05/03 13:10:05;;;;;;;;;;;;;;;21.69;40.02;101143.69;5114623;27;2835;-66
2022/05/03 13:12:31;;;;;;;;;;;;;;;21.71;40.27;101149.50;5117391;27;2793;-66
2022/05/03 13:14:59;;;;;;;;;;;;;;;21.71;40.17;101140.88;5120812;27;2892;-66
2022/05/03 13:17:26;;;;;;;;;;;;;;;21.73;40.37;101140.97;5121189;27;2627;-66
2022/05/03 13:19:52;;;;;;;;;;;;;;;21.73;40.17;101140.97;5124554;27;2529;-66
2022/05/03 13:22:19;;;;;;;;;;;;;;;21.76;40.27;101136.03;5110256;27;2870;-65
2022/05/03 13:24:46;;;;;;;;;;;;;;;21.74;40.28;101133.81;5125390;27;2630;-67
2022/05/03 13:27:12;;;;;;;;;;;;;;;21.76;40.30;101130.25;5122712;27;3529;-67
2022/05/03 13:29:38;;;;;;;;;;;;;;;21.74;40.16;101133.09;5124391;27;2521;-66
2022/05/03 13:32:06;;;;;;;;;;;;;;;21.77;40.39;101119.50;5110891;27;2562;-67